Los Angeles, California
Traffic Map
Current Weather Conditions
Los Angeles, California
Clear
Clear
22°
Feels Like: 22°
Wind Chill: 22° Ceiling: Unl
Heat Index: 22° Visibility: 10mi
Dew Point: -1° Wind: 3mph
Humidity: 22% Direction: 190° (S)
Pressure: 30.18in Gusts: 0mph
Raw Report DataKCQT 250047Z AUTO 19003KT 10SM CLR 22/M01 A3018 RMK AO2 SLP218 T02221006
Traffic Incident Summary
Active as of:
Severity:
Category:
InformationThere was an issue retrieving the traffic information for this location. Please try a different location or try again shortly.
Advertisements
Track Severe Weather on mobile